Flight Track Log - Related Links

Times and Time Zones

All times are in EDT time to prevent confusion due to time zone crossing. See the SQH23 flight status page for this flight to view local times or setup timezone preferences in your user account.

Time Position Orientation Groundspeed Altitude Reporting Facility
EDT Latitude Longitude Course Direction KTS MPH feet Rate Location/Type
Mon 01:00:35 PM 45.5897 -122.5833 299° West 83 96 400  Level Seattle Center
Mon 01:01:05 PM 45.5958 -122.5992 240° Southwest 90 104 900 918 Climbing Seattle Center
Mon 01:02:00 PM 45.5847 -122.6264 224° Southwest 94 108 1,700 783 Climbing Seattle Center
Mon 01:03:00 PM 45.5600 -122.6606 225° Southwest 120 138 2,400 893 Climbing Seattle Center
Mon 01:04:01 PM 45.5369 -122.6936 226° Southwest 122 140 3,500 787 Climbing Seattle Center
Mon 01:05:02 PM 45.5108 -122.7317 225° Southwest 123 142 4,000 639 Climbing Seattle Center
Mon 01:06:03 PM 45.4847 -122.7694 205° Southwest 131 151 4,800 492 Climbing Seattle Center
Mon 01:07:04 PM 45.4506 -122.7922 204° Southwest 137 158 5,000 595 Climbing Seattle Center
Mon 01:08:14 PM 45.4156 -122.8142 210° Southwest 127 146 6,100 942 Climbing Seattle Center
Mon 01:09:05 PM 45.3942 -122.8319 205° Southwest 108 124 6,900 885 Climbing Seattle Center
Mon 01:10:16 PM 45.3636 -122.8519 204° Southwest 105 121 7,900 864 Climbing Seattle Center
Mon 01:11:17 PM 45.3372 -122.8683 208° Southwest 105 121 8,800 590 Climbing Seattle Center
Mon 01:12:18 PM 45.3092 -122.8892 206° Southwest 111 128 9,100 148 Climbing Seattle Center
Mon 01:13:19 PM 45.2733 -122.9139 205° Southwest 138 159 9,100  Level Seattle Center
Mon 01:14:20 PM 45.2361 -122.9389 206° Southwest 148 170 9,100  Level Seattle Center
Mon 01:15:21 PM 45.1994 -122.9647 207° Southwest 147 169 9,100  Level Seattle Center
Mon 01:16:22 PM 45.1622 -122.9919 206° Southwest 149 171 9,100  Level Seattle Center
Mon 01:17:23 PM 45.1258 -123.0175 205° Southwest 148 170 9,100  Level Seattle Center
Mon 01:18:24 PM 45.0883 -123.0428 206° Southwest 148 170 9,100  Level Seattle Center
Mon 01:19:25 PM 45.0436 -123.0733 206° Southwest 148 170 9,100  Level Seattle Center
Mon 01:20:27 PM 45.0069 -123.0989 206° Southwest 148 170 9,100  Level Seattle Center
Mon 01:21:28 PM 44.9700 -123.1247 205° Southwest 148 170 9,100  Level Seattle Center
Mon 01:22:29 PM 44.9331 -123.1492 206° Southwest 147 169 9,100  Level Seattle Center
Mon 01:23:30 PM 44.8958 -123.1750 206° Southwest 148 170 9,100  Level Seattle Center
Mon 01:24:31 PM 44.8589 -123.2008 204° Southwest 147 169 9,100  Level Seattle Center
Mon 01:25:32 PM 44.8211 -123.2250 206° Southwest 148 170 9,100  Level Seattle Center
Mon 01:26:33 PM 44.7836 -123.2508 206° Southwest 149 171 9,100  Level Seattle Center
Mon 01:27:34 PM 44.7461 -123.2761 207° Southwest 149 171 9,100  Level Seattle Center
Mon 01:28:35 PM 44.7089 -123.3025 206° Southwest 149 171 9,100  Level Seattle Center
Mon 01:29:36 PM 44.6722 -123.3278 206° Southwest 148 170 9,100  Level Seattle Center
Mon 01:30:37 PM 44.6353 -123.3528 206° Southwest 147 169 9,100  Level Seattle Center
Mon 01:31:38 PM 44.5992 -123.3778 206° Southwest 146 168 9,100  Level Seattle Center
Mon 01:32:39 PM 44.5622 -123.4031 205° Southwest 147 169 9,100  Level Seattle Center
Mon 01:33:40 PM 44.5247 -123.4278 206° Southwest 148 170 9,100  Level Seattle Center
Mon 01:34:41 PM 44.4794 -123.4586 206° Southwest 150 173 9,100  Level Seattle Center
Mon 01:35:42 PM 44.4425 -123.4842 205° Southwest 149 171 9,100  Level Seattle Center
Mon 01:36:43 PM 44.4050 -123.5092 206° Southwest 149 171 9,100  Level Seattle Center
Mon 01:37:45 PM 44.3678 -123.5350 206° Southwest 149 171 9,100  Level Seattle Center
Mon 01:38:46 PM 44.3300 -123.5611 205° Southwest 151 174 9,100  Level Seattle Center
Mon 01:39:47 PM 44.2922 -123.5861 206° Southwest 151 174 9,100  Level Seattle Center
Mon 01:40:48 PM 44.2539 -123.6128 205° Southwest 153 176 9,100  Level Seattle Center
Mon 01:41:49 PM 44.2161 -123.6372 206° Southwest 151 174 9,100  Level Seattle Center
Mon 01:42:50 PM 44.1775 -123.6639 205° Southwest 153 176 9,100  Level Seattle Center
Mon 01:43:51 PM 44.1397 -123.6889 206° Southwest 152 175 9,100  Level Seattle Center
Mon 01:44:52 PM 44.1017 -123.7142 205° Southwest 152 175 9,100  Level Seattle Center
Mon 01:45:53 PM 44.0556 -123.7442 206° Southwest 152 175 9,100 -49 Level Seattle Center
Mon 01:46:55 PM 44.0178 -123.7697 205° Southwest 151 174 9,000 -49 Descending Seattle Center
Mon 01:47:56 PM 43.9786 -123.7953 206° Southwest 154 177 9,000  Level Seattle Center
Mon 01:48:57 PM 43.9408 -123.8208 205° Southwest 152 175 9,000  Level Seattle Center
Mon 01:49:58 PM 43.9025 -123.8461 205° Southwest 152 175 9,000  Level Seattle Center
Mon 01:50:59 PM 43.8636 -123.8708 207° Southwest 154 177 9,000  Level Seattle Center
Mon 01:52:00 PM 43.8256 -123.8972 207° Southwest 153 176 9,000  Level Seattle Center
Mon 01:53:01 PM 43.7892 -123.9228 204° Southwest 149 171 9,000  Level Seattle Center
Mon 01:54:02 PM 43.7542 -123.9444 205° Southwest 138 159 9,000  Level Seattle Center
Mon 01:55:03 PM 43.7208 -123.9664 219° Southwest 133 153 9,000  Level Seattle Center
Mon 01:56:04 PM 43.6919 -123.9992 217° Southwest 132 152 9,000  Level Seattle Center
Mon 01:57:06 PM 43.6614 -124.0314 217° Southwest 137 158 9,000  Level Seattle Center
Mon 01:58:07 PM 43.6311 -124.0631 217° Southwest 137 158 9,000  Level Seattle Center
Mon 01:59:08 PM 43.5967 -124.0986 217° Southwest 135 155 9,000  Level Seattle Center
Mon 02:00:09 PM 43.5664 -124.1306 217° Southwest 136 157 9,000  Level Seattle Center
Mon 02:01:10 PM 43.5369 -124.1608 217° Southwest 134 154 9,000  Level Seattle Center
Mon 02:02:11 PM 43.5064 -124.1922 216° Southwest 135 155 9,000 -344 Level Seattle Center
Mon 02:03:12 PM 43.4742 -124.2250 217° Southwest 141 162 8,300 -639 Descending Seattle Center
Mon 02:04:13 PM 43.4400 -124.2600 218° Southwest 149 171 7,700 -639 Descending Seattle Center
Mon 02:05:14 PM 43.4097 -124.2928 235° Southwest 144 166 7,000 -683 Descending Seattle Center
Mon 02:06:16 PM 43.3903 -124.3314 268° West 141 162 6,300 -634 Descending Seattle Center
Mon 02:07:17 PM 43.3889 -124.3847 132° Southeast 147 169 5,700 -639 Descending Seattle Center
Mon 02:08:18 PM 43.3736 -124.3614 62° Northeast 140 161 5,000 -541 Descending Seattle Center
Mon 02:09:19 PM 43.3922 -124.3139 345° North 140 161 4,600 -492 Descending Seattle Center
Mon 02:10:20 PM 43.4167 -124.3231 197° South 145 167 4,000 -439 Descending Seattle Center
Mon 02:11:22 PM 43.3844 -124.3369 64° Northeast 150 173 3,700 -290 Descending Seattle Center
Mon 02:18:32 PM 43.5100 -123.9879 64° Northeast  Level Estimated

Login

Don't have an account? Register now (free) for customized features, flight alerts, and more!